createdAt,value
2018-12-29T00:01:11.141Z,0.70
2018-12-29T00:05:16.135Z,0.93
2018-12-29T00:09:21.245Z,0.80
2018-12-29T00:13:26.211Z,0.97
2018-12-29T00:17:31.344Z,1.80
2018-12-29T00:21:36.323Z,0.77
2018-12-29T00:25:41.238Z,1.17
2018-12-29T00:29:46.408Z,0.40
2018-12-29T00:33:51.303Z,1.03
2018-12-29T00:37:56.249Z,1.27
2018-12-29T00:42:01.362Z,0.90
2018-12-29T00:46:06.300Z,0.50
2018-12-29T00:50:11.421Z,1.90
2018-12-29T00:54:16.342Z,1.30
2018-12-29T00:58:21.411Z,0.70
2018-12-29T01:02:26.323Z,0.70
2018-12-29T01:06:31.356Z,0.40
2018-12-29T01:10:36.301Z,0.50
2018-12-29T01:14:41.444Z,0.33
2018-12-29T01:18:47.295Z,0.73
2018-12-29T01:22:52.479Z,0.40
2018-12-29T01:26:57.400Z,0.70
2018-12-29T01:31:02.370Z,0.93
2018-12-29T01:35:07.559Z,1.17
2018-12-29T01:39:12.500Z,1.30
2018-12-29T01:43:17.600Z,1.10
2018-12-29T01:47:22.526Z,1.17
2018-12-29T01:51:27.879Z,0.70
2018-12-29T01:55:37.735Z,2.03
2018-12-29T01:59:44.608Z,0.73
2018-12-29T02:03:52.802Z,1.90
2018-12-29T02:08:00.637Z,1.03
2018-12-29T02:12:08.320Z,0.93
2018-12-29T02:16:15.655Z,0.83
2018-12-29T02:20:23.447Z,0.90
2018-12-29T02:24:32.261Z,0.73
2018-12-29T02:28:37.576Z,1.77
2018-12-29T02:32:42.824Z,0.50
2018-12-29T02:36:53.327Z,2.20
2018-12-29T02:41:00.692Z,1.83
2018-12-29T02:45:09.022Z,1.20
2018-12-29T02:49:16.379Z,1.50
2018-12-29T02:53:25.016Z,0.40
2018-12-29T02:57:34.259Z,1.00
2018-12-29T03:01:41.019Z,1.27
2018-12-29T03:05:49.270Z,0.60
2018-12-29T03:09:54.647Z,1.73
2018-12-29T03:14:01.434Z,0.77
2018-12-29T03:18:09.280Z,0.40
2018-12-29T03:22:16.988Z,1.07
2018-12-29T03:26:23.025Z,1.13
2018-12-29T03:30:32.474Z,0.40
2018-12-29T03:34:39.728Z,2.40
2018-12-29T03:38:46.561Z,0.47
2018-12-29T03:42:53.341Z,0.87
2018-12-29T03:46:58.865Z,0.47
2018-12-29T03:51:08.314Z,0.77
2018-12-29T03:55:16.499Z,1.80
2018-12-29T03:59:27.203Z,0.67
2018-12-29T04:03:32.627Z,0.40
2018-12-29T04:07:44.888Z,1.37
2018-12-29T04:11:50.651Z,0.80
2018-12-29T04:15:58.257Z,1.67
2018-12-29T04:20:09.397Z,1.00
2018-12-29T04:24:21.815Z,1.10
2018-12-29T04:28:29.130Z,2.67
2018-12-29T04:32:37.973Z,2.10
2018-12-29T04:36:44.600Z,1.90
2018-12-29T04:40:51.929Z,1.13
2018-12-29T04:45:00.683Z,2.50
2018-12-29T04:49:11.771Z,1.17
2018-12-29T04:53:16.654Z,2.63
2018-12-29T04:57:25.722Z,2.20
2018-12-29T05:01:31.461Z,1.43
2018-12-29T05:05:40.084Z,1.43
2018-12-29T05:09:46.525Z,2.83
2018-12-29T05:13:54.079Z,1.00
2018-12-29T05:18:01.701Z,1.63
2018-12-29T05:22:06.905Z,1.57
2018-12-29T05:26:11.791Z,2.17
2018-12-29T05:30:16.939Z,2.27
2018-12-29T05:34:21.865Z,1.07
2018-12-29T05:38:27.859Z,1.53
2018-12-29T05:42:32.789Z,3.63
2018-12-29T05:46:37.871Z,3.50
2018-12-29T05:50:42.756Z,3.30
2018-12-29T05:54:47.821Z,1.50
2018-12-29T05:58:52.753Z,2.23
2018-12-29T06:02:57.873Z,1.03
2018-12-29T06:07:02.780Z,2.60
2018-12-29T06:11:07.714Z,1.43
2018-12-29T06:15:12.639Z,4.40
2018-12-29T06:19:17.705Z,2.00
2018-12-29T06:23:22.651Z,2.83
2018-12-29T06:27:27.548Z,0.90
2018-12-29T06:31:32.636Z,1.03
2018-12-29T06:35:37.550Z,2.30
2018-12-29T06:39:42.850Z,2.27
2018-12-29T06:43:47.714Z,2.67
2018-12-29T06:47:52.637Z,1.00
2018-12-29T06:51:57.876Z,2.23
2018-12-29T06:56:02.834Z,2.40
2018-12-29T07:00:08.120Z,3.90
2018-12-29T07:04:13.039Z,2.20
2018-12-29T07:08:18.161Z,3.63
2018-12-29T07:12:23.075Z,2.57
2018-12-29T07:16:28.442Z,1.80
2018-12-29T07:20:34.548Z,3.93
2018-12-29T07:24:39.591Z,3.10
2018-12-29T07:28:44.496Z,3.13
2018-12-29T07:32:49.598Z,3.07
2018-12-29T07:36:54.566Z,3.33
2018-12-29T07:40:59.587Z,2.57
2018-12-29T07:45:04.594Z,4.07
2018-12-29T07:49:09.779Z,2.53
2018-12-29T07:53:14.732Z,4.30
2018-12-29T07:57:19.852Z,0.93
2018-12-29T08:01:24.888Z,3.30
2018-12-29T08:05:30.011Z,3.87
2018-12-29T08:09:34.918Z,2.87
2018-12-29T08:13:40.450Z,2.90
2018-12-29T08:17:45.604Z,3.47
2018-12-29T08:21:50.562Z,2.73
2018-12-29T08:25:55.935Z,1.83
2018-12-29T08:30:01.060Z,3.50
2018-12-29T08:34:07.070Z,2.60
2018-12-29T08:38:12.068Z,4.30
2018-12-29T08:42:17.236Z,4.20
2018-12-29T08:46:22.238Z,3.17
2018-12-29T08:50:27.546Z,3.07
2018-12-29T08:54:32.685Z,4.83
2018-12-29T08:58:37.615Z,2.53
2018-12-29T09:02:42.679Z,2.00
2018-12-29T09:06:47.605Z,4.47
2018-12-29T09:10:52.668Z,3.57
2018-12-29T09:14:57.712Z,5.77
2018-12-29T09:19:03.338Z,3.37
2018-12-29T09:23:08.305Z,2.93
2018-12-29T09:27:13.254Z,3.27
2018-12-29T09:31:18.431Z,3.10
2018-12-29T09:35:23.789Z,3.17
2018-12-29T09:39:29.345Z,5.10
2018-12-29T09:43:34.419Z,4.07
2018-12-29T09:47:39.807Z,5.43
2018-12-29T09:51:44.838Z,4.00
2018-12-29T09:55:49.759Z,3.57
2018-12-29T09:59:56.337Z,4.60
2018-12-29T10:04:02.195Z,3.87
2018-12-29T10:08:07.149Z,4.47
2018-12-29T10:12:12.368Z,5.20
2018-12-29T10:16:18.002Z,5.00
2018-12-29T10:20:23.492Z,2.57
2018-12-29T10:24:31.271Z,3.93
2018-12-29T10:28:37.022Z,4.47
2018-12-29T10:32:42.529Z,5.30
2018-12-29T10:36:47.774Z,4.33
2018-12-29T10:40:53.078Z,4.63
2018-12-29T10:44:57.958Z,4.13
2018-12-29T10:49:03.500Z,4.53
2018-12-29T10:53:08.719Z,3.80
2018-12-29T10:57:13.684Z,3.40
2018-12-29T11:01:21.858Z,2.77
2018-12-29T11:05:26.796Z,3.90
2018-12-29T11:09:31.798Z,4.03
2018-12-29T11:13:37.602Z,3.47
2018-12-29T11:17:45.912Z,3.07
2018-12-29T11:21:50.833Z,4.13
2018-12-29T11:25:55.766Z,4.20
2018-12-29T11:30:00.860Z,4.93
2018-12-29T11:34:05.878Z,4.70
2018-12-29T11:38:10.830Z,3.90
2018-12-29T11:42:15.801Z,4.50
2018-12-29T11:46:21.020Z,4.10
2018-12-29T11:50:26.115Z,3.93
2018-12-29T11:54:31.013Z,4.17
2018-12-29T11:58:36.199Z,4.53
2018-12-29T12:02:42.766Z,4.40
2018-12-29T12:06:48.330Z,4.63
2018-12-29T12:10:53.439Z,3.83
2018-12-29T12:14:58.645Z,4.00
2018-12-29T12:19:03.773Z,4.00
2018-12-29T12:23:08.817Z,4.60
2018-12-29T12:27:13.938Z,3.07
2018-12-29T12:31:21.093Z,4.20
2018-12-29T12:35:27.136Z,5.40
2018-12-29T12:39:33.226Z,3.93
2018-12-29T12:43:38.290Z,3.90
2018-12-29T12:47:44.098Z,4.80
2018-12-29T12:51:49.681Z,4.43
2018-12-29T12:55:55.025Z,6.43
2018-12-29T13:00:00.294Z,5.23
2018-12-29T13:04:05.671Z,4.17
2018-12-29T13:08:10.999Z,6.00
2018-12-29T13:12:17.196Z,6.20
2018-12-29T13:16:22.491Z,5.03
2018-12-29T13:20:30.169Z,3.60
2018-12-29T13:24:37.924Z,7.70
2018-12-29T13:28:51.858Z,6.70
2018-12-29T13:32:58.160Z,5.30
2018-12-29T13:37:07.893Z,7.70
2018-12-29T13:41:13.249Z,5.97
2018-12-29T13:45:18.685Z,6.03
2018-12-29T13:49:24.352Z,5.10
2018-12-29T13:53:29.413Z,4.83
2018-12-29T13:57:34.378Z,5.60
2018-12-29T14:01:39.392Z,6.13
2018-12-29T14:05:44.574Z,4.83
2018-12-29T14:09:49.968Z,4.87
2018-12-29T14:13:57.990Z,4.20
2018-12-29T14:18:03.618Z,4.80
2018-12-29T14:22:09.919Z,4.67
2018-12-29T14:26:15.304Z,7.57
2018-12-29T14:30:21.502Z,6.00
2018-12-29T14:34:27.064Z,4.93
2018-12-29T14:38:32.875Z,4.30
2018-12-29T14:42:37.838Z,6.13
2018-12-29T14:46:42.739Z,4.40
2018-12-29T14:50:47.772Z,4.30
2018-12-29T14:54:52.696Z,3.73
2018-12-29T14:58:57.591Z,6.23
2018-12-29T15:03:02.583Z,3.73
2018-12-29T15:07:08.338Z,5.30
2018-12-29T15:11:13.702Z,4.43
2018-12-29T15:15:19.275Z,5.97
2018-12-29T15:19:28.382Z,4.87
2018-12-29T15:23:34.574Z,5.80
2018-12-29T15:27:41.852Z,4.20
2018-12-29T15:31:49.980Z,5.07
2018-12-29T15:35:57.379Z,4.33
2018-12-29T15:40:02.719Z,4.00
2018-12-29T15:44:08.823Z,4.40
2018-12-29T15:48:17.623Z,4.63
2018-12-29T15:52:25.207Z,3.33
2018-12-29T15:56:34.197Z,3.30
2018-12-29T16:00:39.203Z,4.40
2018-12-29T16:04:44.380Z,4.23
2018-12-29T16:08:49.299Z,2.67
2018-12-29T16:12:54.658Z,5.97
2018-12-29T16:16:59.849Z,3.23
2018-12-29T16:21:04.853Z,5.80
2018-12-29T16:25:12.691Z,4.80
2018-12-29T16:29:21.142Z,4.83
2018-12-29T16:33:26.571Z,4.57
2018-12-29T16:37:31.983Z,3.40
2018-12-29T16:41:36.912Z,5.80
2018-12-29T16:45:41.866Z,4.77
2018-12-29T16:49:47.379Z,3.33
2018-12-29T16:53:52.660Z,4.50
2018-12-29T16:57:57.794Z,4.77
2018-12-29T17:02:03.007Z,6.77
2018-12-29T17:06:07.916Z,4.67
2018-12-29T17:10:13.151Z,4.87
2018-12-29T17:14:18.587Z,2.77
2018-12-29T17:18:23.533Z,5.97
2018-12-29T17:22:28.757Z,4.43
2018-12-29T17:26:36.643Z,5.87
2018-12-29T17:30:42.780Z,5.70
2018-12-29T17:34:48.052Z,6.00
2018-12-29T17:38:56.937Z,4.03
2018-12-29T17:43:02.615Z,4.87
2018-12-29T17:47:10.006Z,3.93
2018-12-29T17:51:15.001Z,5.17
2018-12-29T17:55:21.849Z,3.50
2018-12-29T17:59:29.853Z,4.30
2018-12-29T18:03:40.372Z,4.20
2018-12-29T18:07:45.446Z,5.03
2018-12-29T18:11:50.568Z,4.43
2018-12-29T18:15:55.916Z,2.53
2018-12-29T18:20:02.630Z,4.27
2018-12-29T18:24:07.812Z,2.47
2018-12-29T18:28:13.827Z,6.30
2018-12-29T18:32:19.428Z,2.83
2018-12-29T18:36:24.351Z,2.60
2018-12-29T18:40:33.675Z,3.10
2018-12-29T18:44:39.147Z,6.67
2018-12-29T18:48:44.473Z,3.87
2018-12-29T18:52:50.304Z,3.43
2018-12-29T18:56:55.778Z,4.83
2018-12-29T19:01:01.284Z,4.30
2018-12-29T19:05:07.099Z,3.33
2018-12-29T19:09:12.621Z,4.00
2018-12-29T19:13:17.668Z,5.73
2018-12-29T19:17:23.399Z,4.63
2018-12-29T19:21:29.308Z,3.47
2018-12-29T19:25:35.094Z,2.10
2018-12-29T19:29:41.818Z,3.20
2018-12-29T19:33:47.658Z,4.13
2018-12-29T19:37:55.692Z,3.80
2018-12-29T19:42:00.735Z,3.20
2018-12-29T19:46:07.406Z,4.10
2018-12-29T19:50:14.045Z,3.63
2018-12-29T19:54:19.005Z,3.00
2018-12-29T19:58:23.988Z,3.53
2018-12-29T20:02:29.182Z,4.47
2018-12-29T20:06:34.491Z,3.50
2018-12-29T20:10:40.181Z,4.53
2018-12-29T20:14:45.580Z,2.47
2018-12-29T20:18:50.582Z,5.63
2018-12-29T20:22:56.099Z,2.00
2018-12-29T20:27:01.091Z,5.10
2018-12-29T20:31:06.262Z,4.70
2018-12-29T20:35:13.638Z,5.77
2018-12-29T20:39:18.906Z,4.90
2018-12-29T20:43:23.842Z,4.20
2018-12-29T20:47:30.863Z,5.50
2018-12-29T20:51:36.256Z,2.27
2018-12-29T20:55:41.172Z,5.03
2018-12-29T20:59:46.583Z,4.10
2018-12-29T21:03:51.513Z,6.80
2018-12-29T21:07:57.834Z,4.47
2018-12-29T21:12:03.563Z,4.70
2018-12-29T21:16:10.172Z,3.67
2018-12-29T21:20:17.494Z,4.70
2018-12-29T21:24:23.436Z,6.73
2018-12-29T21:28:28.419Z,5.00
2018-12-29T21:32:33.690Z,4.20
2018-12-29T21:36:38.642Z,3.43
2018-12-29T21:40:43.556Z,6.60
2018-12-29T21:44:48.749Z,5.50
2018-12-29T21:48:53.767Z,6.40
2018-12-29T21:52:59.279Z,3.63
2018-12-29T21:57:04.185Z,5.07
2018-12-29T22:01:09.300Z,4.50
2018-12-29T22:05:15.201Z,4.90
2018-12-29T22:09:20.485Z,5.63
2018-12-29T22:13:25.645Z,3.33
2018-12-29T22:17:30.564Z,5.43
2018-12-29T22:21:35.509Z,4.53
2018-12-29T22:25:48.011Z,5.50
2018-12-29T22:29:47.376Z,5.13
2018-12-29T22:33:52.291Z,3.90
2018-12-29T22:37:57.271Z,4.93
2018-12-29T22:42:02.213Z,4.70
2018-12-29T22:46:07.123Z,3.53
2018-12-29T22:50:12.309Z,3.40
2018-12-29T22:54:17.280Z,2.70
2018-12-29T22:58:25.821Z,4.37
2018-12-29T23:02:30.463Z,4.57
2018-12-29T23:06:35.856Z,2.50
2018-12-29T23:10:41.062Z,5.90
2018-12-29T23:14:46.073Z,4.90
2018-12-29T23:18:51.692Z,4.63
2018-12-29T23:22:57.122Z,3.43
2018-12-29T23:27:02.238Z,5.37
2018-12-29T23:31:07.845Z,5.63
2018-12-29T23:35:13.217Z,3.30
2018-12-29T23:39:20.139Z,4.10
2018-12-29T23:43:25.360Z,2.03
2018-12-29T23:47:30.300Z,3.50
2018-12-29T23:51:35.476Z,3.00
2018-12-29T23:55:40.807Z,5.10
2018-12-29T23:59:46.302Z,1.53
